Time;durP1;ratioP1;P1;durP2;ratioP2;P2;SDS_P1;SDS_P2;PMS_P1;PMS_P2;Temp;Humidity;BMP_temperature;BMP_pressure;BME280_temperature;BME280_humidity;BME280_pressure;Samples;Min_cycle;Max_cycle;Signal;HPM_P1;HPM_P2
2021/09/24 00:02:07;;;;;;;17.57;16.33;;;17.10;99.90;;;;;;5074117;28;20443;-59
2021/09/24 00:04:36;;;;;;;16.80;15.00;;;17.20;99.90;;;;;;5073626;28;20479;-58
2021/09/24 00:07:03;;;;;;;17.00;15.70;;;17.20;99.90;;;;;;5073945;28;20848;-61
2021/09/24 00:09:30;;;;;;;18.23;16.53;;;17.20;99.90;;;;;;5073653;28;20444;-60
2021/09/24 00:11:57;;;;;;;23.07;17.27;;;17.20;99.90;;;;;;5073940;28;20443;-59
2021/09/24 00:14:23;;;;;;;18.80;17.10;;;17.20;99.90;;;;;;5073232;28;20443;-60
2021/09/24 00:16:50;;;;;;;17.13;15.47;;;17.20;99.90;;;;;;5073609;28;20446;-57
2021/09/24 00:19:18;;;;;;;19.73;16.10;;;17.20;99.90;;;;;;5073454;28;20521;-59
2021/09/24 00:21:45;;;;;;;15.63;14.33;;;17.20;99.90;;;;;;5073643;28;20443;-59
2021/09/24 00:24:12;;;;;;;16.40;15.07;;;17.20;99.90;;;;;;5073108;28;20452;-57
2021/09/24 00:26:39;;;;;;;15.63;14.37;;;17.20;99.90;;;;;;5073611;28;20522;-60
2021/09/24 00:29:05;;;;;;;15.20;14.00;;;17.20;99.90;;;;;;5073327;28;20542;-59
2021/09/24 00:31:32;;;;;;;18.80;16.43;;;17.20;99.90;;;;;;5073502;28;20451;-61
2021/09/24 00:33:59;;;;;;;18.93;17.23;;;17.20;99.90;;;;;;5072976;28;20447;-60
2021/09/24 00:36:27;;;;;;;17.73;16.07;;;17.20;99.90;;;;;;5073385;28;20464;-60
2021/09/24 00:38:53;;;;;;;16.33;15.03;;;17.20;99.90;;;;;;5073020;28;20599;-58
2021/09/24 00:41:20;;;;;;;26.10;23.43;;;17.20;99.90;;;;;;5073184;28;20470;-59
2021/09/24 00:43:47;;;;;;;24.57;20.50;;;17.20;99.90;;;;;;5072748;28;20932;-58
2021/09/24 00:46:13;;;;;;;20.33;18.53;;;17.20;99.90;;;;;;5073138;28;20466;-58
2021/09/24 00:48:40;;;;;;;17.13;15.77;;;17.20;99.90;;;;;;5072874;28;20440;-59
2021/09/24 00:51:07;;;;;;;17.10;15.70;;;17.20;99.90;;;;;;5073093;28;20450;-59
2021/09/24 00:53:35;;;;;;;16.30;14.80;;;17.20;99.90;;;;;;5072973;28;20443;-61
2021/09/24 00:56:02;;;;;;;15.07;13.97;;;17.10;99.90;;;;;;5072982;28;20992;-60
2021/09/24 00:58:28;;;;;;;17.17;15.30;;;17.10;99.90;;;;;;5072338;28;20475;-58
2021/09/24 01:00:55;;;;;;;15.70;14.30;;;17.10;99.90;;;;;;5073037;28;20813;-59
2021/09/24 01:03:24;;;;;;;15.13;14.03;;;17.10;99.90;;;;;;5072826;28;20458;-57
2021/09/24 01:05:51;;;;;;;15.07;13.80;;;17.10;99.90;;;;;;5072646;28;20805;-58
2021/09/24 01:08:18;;;;;;;14.97;13.67;;;17.10;99.90;;;;;;5072586;28;20435;-57
2021/09/24 01:10:46;;;;;;;15.80;14.60;;;17.10;99.90;;;;;;5072747;28;20435;-57
2021/09/24 01:13:13;;;;;;;15.30;14.00;;;17.10;99.90;;;;;;5072312;28;20470;-58
2021/09/24 01:15:40;;;;;;;15.13;13.73;;;17.10;99.90;;;;;;5072394;28;20968;-59
2021/09/24 01:18:07;;;;;;;14.53;13.23;;;17.10;99.90;;;;;;5072111;28;20479;-61
2021/09/24 01:20:34;;;;;;;13.40;12.40;;;17.10;99.90;;;;;;5072436;28;20447;-60
2021/09/24 01:23:02;;;;;;;15.53;13.80;;;17.00;99.90;;;;;;5072344;28;20447;-58
2021/09/24 01:25:28;;;;;;;15.80;14.33;;;17.10;99.90;;;;;;5071554;28;21218;-60
2021/09/24 01:27:55;;;;;;;15.17;13.87;;;17.10;99.90;;;;;;5071936;28;20451;-58
2021/09/24 01:30:23;;;;;;;14.80;13.60;;;17.10;99.90;;;;;;5072188;28;20816;-59
2021/09/24 01:32:50;;;;;;;15.50;14.20;;;17.10;99.90;;;;;;5071686;28;20451;-58
2021/09/24 01:35:18;;;;;;;16.37;13.60;;;17.10;99.90;;;;;;5072276;28;20471;-58
2021/09/24 01:37:45;;;;;;;15.50;14.20;;;17.10;99.90;;;;;;5071976;28;20478;-60
2021/09/24 01:40:15;;;;;;;17.60;13.37;;;17.10;99.90;;;;;;5071810;28;20443;-61
2021/09/24 01:42:43;;;;;;;14.50;13.10;;;17.10;99.90;;;;;;5072060;28;20447;-58
2021/09/24 01:45:10;;;;;;;15.20;13.73;;;17.10;99.90;;;;;;5071992;28;20471;-60
2021/09/24 01:47:37;;;;;;;15.70;14.30;;;17.10;99.90;;;;;;5072040;28;20438;-60
2021/09/24 01:50:05;;;;;;;14.97;13.87;;;17.10;99.90;;;;;;5071598;28;20968;-59
2021/09/24 01:52:32;;;;;;;16.30;14.70;;;17.00;99.90;;;;;;5071981;28;20435;-59
2021/09/24 01:54:59;;;;;;;16.50;14.80;;;17.00;99.90;;;;;;5071827;28;20459;-57
2021/09/24 01:57:27;;;;;;;16.70;15.10;;;17.00;99.90;;;;;;5071600;28;20984;-59
2021/09/24 01:59:54;;;;;;;16.97;15.30;;;16.90;99.90;;;;;;5071510;28;20454;-59
2021/09/24 02:02:21;;;;;;;19.07;14.30;;;16.90;99.90;;;;;;5071926;28;20450;-60
2021/09/24 02:04:47;;;;;;;18.23;16.53;;;16.90;99.90;;;;;;5071831;28;20456;-61
2021/09/24 02:07:14;;;;;;;23.70;18.97;;;16.90;99.90;;;;;;5071581;28;20450;-58
2021/09/24 02:09:41;;;;;;;17.67;15.97;;;16.90;99.90;;;;;;5071644;28;20847;-59
2021/09/24 02:12:08;;;;;;;19.53;17.50;;;16.80;99.90;;;;;;5071842;28;20447;-58
2021/09/24 02:14:37;;;;;;;23.70;20.80;;;16.80;99.90;;;;;;5070916;28;20471;-55
2021/09/24 02:17:05;;;;;;;21.47;19.17;;;16.80;99.90;;;;;;5071855;28;20443;-61
2021/09/24 02:19:32;;;;;;;22.50;17.63;;;16.80;99.90;;;;;;5071578;28;21072;-58
2021/09/24 02:21:59;;;;;;;26.03;21.63;;;16.80;99.90;;;;;;5071794;28;20443;-61
2021/09/24 02:24:26;;;;;;;25.03;22.07;;;16.80;99.90;;;;;;5071269;28;20451;-59
2021/09/24 02:26:53;;;;;;;25.10;21.03;;;16.80;99.90;;;;;;5081974;28;20458;-61
2021/09/24 02:29:20;;;;;;;23.67;21.27;;;16.80;99.90;;;;;;5083033;28;20448;-63
2021/09/24 02:31:48;;;;;;;22.97;20.57;;;16.80;99.90;;;;;;5083046;28;20452;-61
2021/09/24 02:34:14;;;;;;;23.00;20.67;;;16.80;99.90;;;;;;5082392;28;20444;-61
2021/09/24 02:36:41;;;;;;;22.30;20.10;;;16.80;99.90;;;;;;5083965;28;20443;-60
2021/09/24 02:39:08;;;;;;;29.63;22.60;;;16.80;99.90;;;;;;5087282;28;20477;-63
2021/09/24 02:41:36;;;;;;;28.30;22.40;;;16.80;99.90;;;;;;5087027;28;20451;-62
2021/09/24 02:44:03;;;;;;;21.20;19.10;;;16.80;99.90;;;;;;5086865;28;20454;-63
2021/09/24 02:46:29;;;;;;;21.90;19.70;;;16.80;99.90;;;;;;5087783;28;20467;-59
2021/09/24 02:48:57;;;;;;;23.20;20.70;;;16.80;99.90;;;;;;5087026;28;20447;-62
2021/09/24 02:51:24;;;;;;;25.57;20.50;;;16.80;99.90;;;;;;5087464;28;20443;-63
2021/09/24 02:53:51;;;;;;;25.63;20.20;;;16.80;99.90;;;;;;5086298;28;20454;-61
2021/09/24 02:56:17;;;;;;;23.20;20.17;;;16.80;99.90;;;;;;5086141;28;20466;-61
2021/09/24 02:58:44;;;;;;;26.33;20.40;;;16.80;99.90;;;;;;5084435;28;20483;-63
2021/09/24 03:01:11;;;;;;;22.87;19.37;;;16.80;99.90;;;;;;5085538;28;20723;-63
2021/09/24 03:03:37;;;;;;;26.47;22.30;;;16.80;99.90;;;;;;5086435;28;20455;-61
2021/09/24 03:06:06;;;;;;;26.03;19.50;;;16.70;99.90;;;;;;5086246;28;20976;-62
2021/09/24 03:08:32;;;;;;;30.77;20.80;;;16.70;99.90;;;;;;5086353;28;20805;-63
2021/09/24 03:10:59;;;;;;;24.83;21.90;;;16.80;99.90;;;;;;5086883;28;20438;-63
2021/09/24 03:13:26;;;;;;;29.30;22.80;;;16.80;99.90;;;;;;5085950;28;20457;-62
2021/09/24 03:15:54;;;;;;;29.80;21.50;;;16.70;99.90;;;;;;5086425;28;20466;-63
2021/09/24 03:18:21;;;;;;;24.73;20.97;;;16.70;99.90;;;;;;5075015;28;21091;-59
2021/09/24 03:20:47;;;;;;;23.00;20.23;;;16.70;99.90;;;;;;5074910;28;20447;-60
2021/09/24 03:23:15;;;;;;;23.17;19.20;;;16.70;99.90;;;;;;5074603;28;20451;-61
2021/09/24 03:25:42;;;;;;;33.40;21.90;;;16.70;99.90;;;;;;5074363;28;20493;-60
2021/09/24 03:28:11;;;;;;;31.60;21.50;;;16.70;99.90;;;;;;5074433;28;20459;-61
2021/09/24 03:30:38;;;;;;;21.60;19.40;;;16.70;99.90;;;;;;5074425;28;20442;-61
2021/09/24 03:33:05;;;;;;;26.87;22.37;;;16.70;99.90;;;;;;5074166;28;20478;-59
2021/09/24 03:35:32;;;;;;;27.77;24.40;;;16.70;99.90;;;;;;5074232;28;20470;-61
2021/09/24 03:37:59;;;;;;;26.10;22.37;;;16.60;99.90;;;;;;5074271;28;20471;-61
2021/09/24 03:40:27;;;;;;;28.37;22.07;;;16.60;99.90;;;;;;5074219;28;20454;-61
2021/09/24 03:42:54;;;;;;;35.73;26.60;;;16.60;99.90;;;;;;5074503;28;20508;-56
2021/09/24 03:45:20;;;;;;;27.10;23.43;;;16.60;99.90;;;;;;5074149;28;20462;-60
2021/09/24 03:47:47;;;;;;;30.43;23.10;;;16.60;99.90;;;;;;5073663;28;20443;-59
2021/09/24 03:50:14;;;;;;;31.97;24.70;;;16.60;99.90;;;;;;5074197;28;20812;-57
2021/09/24 03:52:40;;;;;;;36.23;26.27;;;16.60;99.90;;;;;;5074205;28;20451;-57
2021/09/24 03:55:08;;;;;;;31.53;25.57;;;16.60;99.90;;;;;;5074151;28;20463;-56
2021/09/24 03:57:36;;;;;;;34.60;25.30;;;16.60;99.90;;;;;;5074050;28;20500;-57
2021/09/24 04:00:04;;;;;;;36.57;28.27;;;16.60;99.90;;;;;;5073566;28;20479;-57
2021/09/24 04:02:31;;;;;;;33.77;27.03;;;16.60;99.90;;;;;;5074090;28;20802;-60
2021/09/24 04:04:58;;;;;;;33.67;25.90;;;16.60;99.90;;;;;;5073688;28;20467;-61
2021/09/24 04:07:24;;;;;;;33.73;26.73;;;16.50;99.90;;;;;;5073827;28;20454;-60
2021/09/24 04:09:51;;;;;;;31.57;25.73;;;16.50;99.90;;;;;;5073266;28;20497;-60
2021/09/24 04:12:18;;;;;;;33.67;26.47;;;16.60;99.90;;;;;;5073947;28;20505;-60
2021/09/24 04:14:46;;;;;;;36.33;26.87;;;16.60;99.90;;;;;;5073648;28;20467;-56
2021/09/24 04:17:12;;;;;;;30.27;26.10;;;16.60;99.90;;;;;;5074010;28;20448;-57
2021/09/24 04:19:39;;;;;;;35.67;26.03;;;16.60;99.90;;;;;;5073311;28;20832;-56
2021/09/24 04:22:06;;;;;;;26.37;22.90;;;16.60;99.90;;;;;;5073756;28;20448;-57
2021/09/24 04:24:32;;;;;;;30.33;25.03;;;16.60;99.90;;;;;;5073473;28;20479;-58
2021/09/24 04:26:59;;;;;;;28.27;24.30;;;16.60;99.90;;;;;;5073553;28;20477;-61
2021/09/24 04:29:26;;;;;;;33.33;24.67;;;16.60;99.90;;;;;;5072930;28;20439;-62
2021/09/24 04:31:54;;;;;;;30.53;26.17;;;16.60;99.90;;;;;;5073163;28;20451;-61
2021/09/24 04:34:21;;;;;;;33.43;25.60;;;16.50;99.90;;;;;;5073237;28;20932;-59
2021/09/24 04:36:48;;;;;;;27.80;24.80;;;16.50;99.90;;;;;;5073356;28;20446;-59
2021/09/24 04:39:14;;;;;;;27.53;24.23;;;16.50;99.90;;;;;;5073094;28;20479;-57
2021/09/24 04:41:41;;;;;;;32.60;25.40;;;16.50;99.90;;;;;;5073223;28;20793;-61
2021/09/24 04:44:08;;;;;;;27.23;24.10;;;16.50;99.90;;;;;;5072983;28;20443;-59
2021/09/24 04:46:34;;;;;;;31.40;24.47;;;16.50;99.90;;;;;;5072608;28;20443;-60
2021/09/24 04:49:03;;;;;;;26.53;23.97;;;16.50;99.90;;;;;;5072113;28;20440;-61
2021/09/24 04:51:29;;;;;;;31.43;25.77;;;16.50;99.90;;;;;;5072171;28;20459;-60
2021/09/24 04:53:56;;;;;;;33.47;26.27;;;16.40;99.90;;;;;;5072815;28;20446;-59
2021/09/24 04:56:23;;;;;;;33.70;28.17;;;16.40;99.90;;;;;;5072728;28;20985;-58
2021/09/24 04:58:50;;;;;;;33.70;27.07;;;16.40;99.90;;;;;;5072450;28;20483;-57
2021/09/24 05:01:17;;;;;;;28.00;25.07;;;16.40;99.90;;;;;;5071740;28;20450;-57
2021/09/24 05:03:43;;;;;;;28.70;24.90;;;16.30;99.90;;;;;;5072698;28;20447;-58
2021/09/24 05:06:11;;;;;;;29.77;26.37;;;16.30;99.90;;;;;;5072452;28;20483;-58
2021/09/24 05:08:38;;;;;;;35.13;26.80;;;16.30;99.90;;;;;;5072351;28;20520;-56
2021/09/24 05:11:05;;;;;;;33.50;25.63;;;16.30;99.90;;;;;;5072500;28;20444;-58
2021/09/24 05:13:32;;;;;;;37.27;27.23;;;16.30;99.90;;;;;;5072444;28;20454;-60
2021/09/24 05:15:58;;;;;;;35.43;27.67;;;16.30;99.90;;;;;;5072387;28;20820;-60
2021/09/24 05:18:25;;;;;;;35.07;26.70;;;16.30;99.90;;;;;;5072110;28;20469;-56
2021/09/24 05:20:52;;;;;;;34.33;26.93;;;16.30;99.90;;;;;;5072239;28;20451;-61
2021/09/24 05:23:19;;;;;;;33.83;26.90;;;16.20;99.90;;;;;;5072273;28;20447;-57
2021/09/24 05:25:46;;;;;;;33.33;28.40;;;16.20;99.90;;;;;;5071924;28;20467;-54
2021/09/24 05:28:13;;;;;;;31.83;26.40;;;16.20;99.90;;;;;;5071897;28;20471;-60
2021/09/24 05:30:40;;;;;;;38.00;26.80;;;16.20;99.90;;;;;;5072248;28;20454;-61
2021/09/24 05:33:06;;;;;;;41.60;29.23;;;16.20;99.90;;;;;;5072128;28;20443;-59
2021/09/24 05:35:33;;;;;;;39.20;28.83;;;16.20;99.90;;;;;;5071899;28;20502;-59
2021/09/24 05:38:00;;;;;;;35.17;27.90;;;16.20;99.90;;;;;;5071755;28;20438;-59
2021/09/24 05:40:28;;;;;;;45.97;28.80;;;16.20;99.90;;;;;;5071705;28;21000;-60
2021/09/24 05:42:55;;;;;;;40.33;29.87;;;16.10;99.90;;;;;;5072052;28;20808;-58
2021/09/24 05:45:22;;;;;;;36.37;29.73;;;16.10;99.90;;;;;;5071662;28;20467;-60
2021/09/24 05:47:49;;;;;;;34.90;27.87;;;16.10;99.90;;;;;;5071739;28;20447;-59
2021/09/24 05:50:16;;;;;;;32.00;25.90;;;16.10;99.90;;;;;;5071786;28;20793;-59
2021/09/24 05:52:44;;;;;;;41.93;26.00;;;16.20;99.90;;;;;;5071772;28;20925;-58
2021/09/24 05:55:12;;;;;;;36.60;24.17;;;16.20;99.90;;;;;;5071555;28;20463;-58
2021/09/24 05:57:40;;;;;;;31.87;26.23;;;16.20;99.90;;;;;;5071618;28;20876;-60
2021/09/24 06:00:09;;;;;;;30.13;23.30;;;16.20;99.90;;;;;;5071351;28;20536;-59
2021/09/24 06:02:36;;;;;;;29.83;26.40;;;16.20;99.90;;;;;;5071580;28;20439;-58
2021/09/24 06:05:04;;;;;;;30.80;25.60;;;16.20;99.90;;;;;;5071535;28;20470;-59
2021/09/24 06:07:30;;;;;;;33.60;26.30;;;16.30;99.90;;;;;;5071520;28;20451;-61
2021/09/24 06:09:57;;;;;;;30.10;24.37;;;16.30;99.90;;;;;;5071340;28;20534;-61
2021/09/24 06:12:24;;;;;;;29.40;23.70;;;16.30;99.90;;;;;;5071225;28;20450;-57
2021/09/24 06:14:52;;;;;;;27.70;21.93;;;16.30;99.90;;;;;;5071644;28;20463;-57
2021/09/24 06:17:19;;;;;;;29.57;23.40;;;16.30;99.90;;;;;;5071365;28;20439;-59
2021/09/24 06:19:45;;;;;;;33.63;22.67;;;16.30;99.90;;;;;;5071185;28;20486;-58
2021/09/24 06:22:12;;;;;;;29.27;24.60;;;16.30;99.90;;;;;;5071514;28;20435;-60
2021/09/24 06:24:39;;;;;;;25.70;22.80;;;16.30;99.90;;;;;;5071153;28;20478;-60
2021/09/24 06:27:10;;;;;;;29.17;22.67;;;16.30;99.90;;;;;;5071473;28;20447;-59
2021/09/24 06:29:37;;;;;;;24.73;21.97;;;16.20;99.90;;;;;;5071135;28;20497;-59
2021/09/24 06:32:06;;;;;;;24.20;21.70;;;16.20;99.90;;;;;;5071439;28;20443;-59
2021/09/24 06:34:33;;;;;;;24.80;20.37;;;16.20;99.90;;;;;;5071181;28;20474;-60
2021/09/24 06:36:59;;;;;;;23.07;19.63;;;16.10;99.90;;;;;;5071297;28;20440;-58
2021/09/24 06:39:26;;;;;;;26.13;21.37;;;16.10;99.90;;;;;;5070913;28;20490;-57
2021/09/24 06:41:53;;;;;;;23.00;20.43;;;16.10;99.90;;;;;;5071204;28;20443;-58
2021/09/24 06:44:19;;;;;;;24.60;19.40;;;16.10;99.90;;;;;;5071170;28;20455;-59
2021/09/24 06:46:46;;;;;;;25.83;20.07;;;16.10;99.90;;;;;;5071317;28;20785;-59
2021/09/24 06:49:14;;;;;;;24.73;21.03;;;16.10;99.90;;;;;;5070988;28;20439;-60
2021/09/24 06:51:41;;;;;;;22.73;18.63;;;16.10;99.90;;;;;;5071135;28;20808;-61
2021/09/24 06:54:08;;;;;;;23.10;18.63;;;16.10;99.90;;;;;;5071238;28;20830;-60
2021/09/24 06:56:35;;;;;;;26.47;21.03;;;16.10;99.90;;;;;;5071182;28;20473;-60
2021/09/24 06:59:02;;;;;;;22.40;20.00;;;16.20;99.90;;;;;;5070827;28;20572;-60
2021/09/24 07:01:29;;;;;;;21.07;18.87;;;16.30;99.90;;;;;;5070975;28;20929;-60
2021/09/24 07:03:56;;;;;;;24.93;22.03;;;16.40;99.90;;;;;;5070989;28;20520;-61
2021/09/24 07:06:24;;;;;;;23.07;20.57;;;16.40;99.90;;;;;;5070962;28;20467;-61
2021/09/24 07:08:51;;;;;;;20.40;18.00;;;16.50;99.90;;;;;;5070778;28;20451;-60
2021/09/24 07:11:18;;;;;;;21.57;19.50;;;16.60;99.90;;;;;;5071089;28;20537;-60
2021/09/24 07:13:45;;;;;;;23.13;18.53;;;16.50;99.90;;;;;;5071107;28;20443;-60
2021/09/24 07:16:12;;;;;;;22.07;18.97;;;16.60;99.90;;;;;;5070958;28;20502;-60
2021/09/24 07:18:38;;;;;;;20.97;18.87;;;16.70;99.90;;;;;;5070698;28;20443;-60
2021/09/24 07:21:05;;;;;;;24.53;22.00;;;16.70;99.90;;;;;;5070812;28;20486;-60
2021/09/24 07:23:33;;;;;;;24.20;21.43;;;16.70;99.90;;;;;;5071966;28;20450;-59
2021/09/24 07:26:00;;;;;;;27.00;21.17;;;16.70;99.90;;;;;;5074435;28;20471;-61
2021/09/24 07:28:26;;;;;;;22.57;20.37;;;16.80;99.90;;;;;;5074192;28;20458;-60
2021/09/24 07:30:53;;;;;;;23.60;21.20;;;16.70;99.90;;;;;;5074507;28;20443;-60
2021/09/24 07:33:20;;;;;;;26.53;22.80;;;16.70;99.90;;;;;;5074448;28;20447;-60
2021/09/24 07:35:47;;;;;;;22.87;20.77;;;16.70;99.90;;;;;;5074243;28;20992;-59
2021/09/24 07:38:16;;;;;;;23.70;21.17;;;16.60;99.90;;;;;;5074048;28;20447;-60
2021/09/24 07:40:44;;;;;;;24.90;22.17;;;16.70;99.90;;;;;;5074160;28;20557;-60
2021/09/24 07:43:11;;;;;;;25.80;23.40;;;16.90;99.90;;;;;;5074147;28;20447;-60
2021/09/24 07:45:38;;;;;;;24.97;22.20;;;16.80;99.90;;;;;;5074051;28;20466;-60
2021/09/24 07:48:06;;;;;;;23.53;21.07;;;16.90;99.90;;;;;;5074092;28;20462;-60
2021/09/24 07:50:33;;;;;;;25.93;22.40;;;17.00;99.90;;;;;;5073989;28;20451;-59
2021/09/24 07:53:00;;;;;;;26.70;24.07;;;17.10;99.90;;;;;;5073944;28;20440;-60
2021/09/24 07:55:28;;;;;;;29.77;22.47;;;17.10;99.90;;;;;;5073862;28;20486;-59
2021/09/24 07:57:56;;;;;;;29.43;26.23;;;17.10;99.90;;;;;;5073903;28;20503;-60
2021/09/24 08:00:24;;;;;;;30.03;23.90;;;17.10;99.90;;;;;;5073861;28;20537;-60
2021/09/24 08:02:50;;;;;;;28.63;25.70;;;17.30;99.90;;;;;;5073888;28;20451;-60
2021/09/24 08:05:18;;;;;;;27.20;24.33;;;17.40;99.90;;;;;;5073772;28;20463;-60
2021/09/24 08:07:45;;;;;;;29.33;25.60;;;17.40;99.90;;;;;;5073593;28;20447;-60
2021/09/24 08:10:12;;;;;;;27.53;24.73;;;17.50;99.90;;;;;;5073627;28;20444;-60
2021/09/24 08:12:39;;;;;;;28.00;25.27;;;17.40;99.90;;;;;;5073638;28;20971;-59
2021/09/24 08:15:08;;;;;;;28.87;25.90;;;17.30;99.90;;;;;;5073541;28;20471;-57
2021/09/24 08:17:35;;;;;;;30.40;25.20;;;17.40;99.90;;;;;;5073655;28;20451;-61
2021/09/24 08:20:03;;;;;;;28.33;25.50;;;17.40;99.90;;;;;;5073210;28;20486;-59
2021/09/24 08:22:31;;;;;;;28.37;25.57;;;17.50;99.90;;;;;;5073581;28;20462;-60
2021/09/24 08:24:58;;;;;;;25.43;22.83;;;17.60;99.90;;;;;;5073820;28;20486;-60
2021/09/24 08:27:25;;;;;;;26.13;23.73;;;17.60;99.90;;;;;;5073561;28;20467;-60
2021/09/24 08:29:51;;;;;;;25.70;23.10;;;17.60;99.90;;;;;;5073116;28;20451;-60
2021/09/24 08:32:19;;;;;;;26.03;23.40;;;17.60;99.90;;;;;;5073424;28;20439;-60
2021/09/24 08:34:46;;;;;;;25.07;22.67;;;17.60;99.90;;;;;;5073127;28;20463;-60
2021/09/24 08:37:13;;;;;;;24.77;22.20;;;17.60;99.90;;;;;;5073094;28;20450;-61
2021/09/24 08:39:39;;;;;;;24.87;22.43;;;17.60;99.90;;;;;;5072843;28;20482;-58
2021/09/24 08:42:06;;;;;;;26.90;22.87;;;17.60;99.90;;;;;;5073177;28;20922;-60
2021/09/24 08:44:33;;;;;;;24.47;22.07;;;17.70;99.90;;;;;;5073141;28;20479;-60
2021/09/24 08:47:00;;;;;;;22.63;20.43;;;17.80;99.90;;;;;;5073005;28;20952;-60
2021/09/24 08:49:30;;;;;;;22.73;20.30;;;17.80;99.90;;;;;;5072842;28;20812;-60
2021/09/24 08:51:57;;;;;;;23.70;21.30;;;17.80;99.90;;;;;;5072913;28;20530;-59
2021/09/24 08:54:24;;;;;;;24.00;20.67;;;17.70;99.90;;;;;;5072764;28;20439;-60
2021/09/24 08:56:50;;;;;;;24.20;21.97;;;17.70;99.90;;;;;;5072772;28;20443;-60
2021/09/24 08:59:18;;;;;;;23.20;20.47;;;17.80;99.90;;;;;;5072582;28;20450;-59
2021/09/24 09:01:59;;;;;;;22.23;19.97;;;17.80;99.90;;;;;;5072725;28;20431;-59
2021/09/24 09:04:35;;;;;;;22.50;20.33;;;18.00;99.90;;;;;;5072763;28;20474;-59
2021/09/24 09:07:06;;;;;;;22.57;20.43;;;18.30;99.90;;;;;;5072651;28;20446;-61
2021/09/24 09:09:35;;;;;;;23.07;21.10;;;18.60;99.90;;;;;;5072426;28;20439;-59
2021/09/24 09:12:14;;;;;;;24.23;22.07;;;18.90;99.90;;;;;;5072550;28;20444;-61
2021/09/24 09:14:41;;;;;;;22.60;20.57;;;19.30;99.90;;;;;;5072421;28;20870;-59
2021/09/24 09:17:28;;;;;;;20.87;19.17;;;19.50;99.90;;;;;;5072582;28;20497;-59
2021/09/24 09:20:15;;;;;;;21.10;19.63;;;19.70;99.90;;;;;;5071957;28;20485;-60
2021/09/24 09:22:43;;;;;;;21.60;19.90;;;19.90;99.90;;;;;;5072274;28;20447;-60
2021/09/24 09:25:14;;;;;;;21.17;19.50;;;20.20;99.90;;;;;;5072168;28;20485;-60
2021/09/24 09:27:47;;;;;;;19.90;18.60;;;20.60;99.90;;;;;;5072189;28;20944;-59
2021/09/24 09:30:15;;;;;;;19.50;18.30;;;21.00;99.90;;;;;;5072181;28;20475;-60
2021/09/24 09:32:44;;;;;;;21.03;19.37;;;21.40;99.90;;;;;;5072220;28;20440;-59
2021/09/24 09:35:13;;;;;;;19.87;18.67;;;21.60;99.90;;;;;;5071862;28;20877;-60
2021/09/24 09:37:40;;;;;;;20.40;18.67;;;21.70;99.90;;;;;;5071878;28;20855;-60
2021/09/24 09:40:10;;;;;;;22.23;20.90;;;22.20;99.90;;;;;;5071898;28;20908;-60
2021/09/24 09:42:40;;;;;;;21.30;20.00;;;22.20;99.90;;;;;;5071815;28;20450;-60
2021/09/24 09:45:09;;;;;;;21.00;19.60;;;21.90;99.90;;;;;;5072038;28;20467;-60
2021/09/24 09:47:38;;;;;;;20.10;19.00;;;21.80;99.90;;;;;;5071403;28;20459;-59
2021/09/24 09:50:13;;;;;;;20.87;19.47;;;21.90;99.90;;;;;;5071586;28;20443;-60
2021/09/24 09:52:59;;;;;;;20.27;18.77;;;22.00;99.90;;;;;;5071864;28;20808;-60
2021/09/24 09:55:27;;;;;;;19.27;18.27;;;22.20;99.90;;;;;;5071654;28;20470;-60
2021/09/24 09:57:55;;;;;;;19.73;18.63;;;22.30;99.90;;;;;;5071627;28;20443;-60
2021/09/24 10:00:22;;;;;;;19.70;18.60;;;22.40;99.90;;;;;;5071635;28;20487;-60
2021/09/24 10:03:03;;;;;;;21.53;20.23;;;22.30;99.90;;;;;;5071596;28;20451;-60
2021/09/24 10:05:36;;;;;;;20.63;19.53;;;22.30;99.90;;;;;;5071570;28;20467;-60
2021/09/24 10:08:19;;;;;;;20.53;19.53;;;22.40;99.90;;;;;;5071672;28;20462;-59
2021/09/24 10:11:00;;;;;;;21.23;20.07;;;22.40;99.90;;;;;;5071993;28;20443;-60
2021/09/24 10:13:31;;;;;;;21.40;20.23;;;22.50;99.90;;;;;;5071681;28;20801;-60
2021/09/24 10:15:58;;;;;;;22.50;21.20;;;22.50;99.90;;;;;;5071537;28;20995;-60
2021/09/24 10:18:25;;;;;;;22.30;21.10;;;22.40;99.90;;;;;;5071336;28;20928;-60
2021/09/24 10:20:54;;;;;;;22.10;20.60;;;22.40;99.90;;;;;;5071374;28;20482;-60
2021/09/24 10:23:21;;;;;;;22.60;21.10;;;22.20;99.90;;;;;;5071531;28;20475;-60
2021/09/24 10:25:55;;;;;;;24.07;22.37;;;22.00;99.90;;;;;;5071370;28;20482;-60
2021/09/24 10:28:26;;;;;;;22.63;20.97;;;21.80;99.90;;;;;;5071161;28;20944;-60
2021/09/24 10:30:54;;;;;;;24.30;22.40;;;21.40;99.90;;;;;;5071436;28;20439;-60
2021/09/24 10:33:20;;;;;;;23.00;21.57;;;21.20;99.90;;;;;;5071408;28;20458;-60
2021/09/24 10:35:49;;;;;;;22.97;21.37;;;21.20;99.90;;;;;;5071358;28;20863;-60
2021/09/24 10:38:19;;;;;;;23.40;22.00;;;21.10;99.90;;;;;;5071331;28;20447;-60
2021/09/24 10:40:55;;;;;;;22.97;21.37;;;21.30;99.90;;;;;;5071237;28;20479;-60
2021/09/24 10:43:21;;;;;;;23.93;22.23;;;21.00;99.90;;;;;;5071290;28;20959;-60
2021/09/24 10:45:48;;;;;;;22.63;21.13;;;21.00;99.90;;;;;;5071347;28;20463;-59
2021/09/24 10:48:20;;;;;;;23.87;22.50;;;21.30;99.90;;;;;;5071067;28;20447;-60
2021/09/24 10:50:52;;;;;;;24.20;22.50;;;21.60;99.90;;;;;;5071240;28;20931;-60
2021/09/24 10:53:23;;;;;;;25.03;23.20;;;21.80;99.90;;;;;;5069599;28;20451;-60
2021/09/24 10:56:05;;;;;;;23.87;22.37;;;22.20;99.90;;;;;;5070348;28;20468;-61
2021/09/24 10:58:41;;;;;;;22.37;21.00;;;22.20;99.90;;;;;;5065967;28;20446;-61
2021/09/24 11:01:12;;;;;;;22.10;20.60;;;22.20;99.90;;;;;;5072050;28;20486;-60
2021/09/24 11:03:52;;;;;;;23.00;21.63;;;22.00;99.90;;;;;;5074951;28;20443;-59
2021/09/24 11:06:35;;;;;;;23.00;21.63;;;22.20;99.90;;;;;;5075005;28;20467;-60
2021/09/24 11:09:05;;;;;;;23.40;21.80;;;22.40;99.90;;;;;;5074634;28;20982;-60
2021/09/24 11:11:33;;;;;;;23.33;21.80;;;22.50;99.90;;;;;;5074959;28;20521;-59
2021/09/24 11:14:20;;;;;;;24.47;22.57;;;22.60;99.90;;;;;;5074885;28;20443;-59
2021/09/24 11:16:48;;;;;;;23.27;21.67;;;22.60;99.90;;;;;;5074782;28;20944;-58
2021/09/24 11:19:33;;;;;;;21.50;20.40;;;22.60;99.90;;;;;;5071060;28;20540;-59
2021/09/24 11:22:09;;;;;;;22.67;21.40;;;22.80;99.90;;;;;;5071015;28;20474;-59
2021/09/24 11:24:38;;;;;;;24.07;22.10;;;22.90;99.90;;;;;;5074436;28;20474;-59
2021/09/24 11:27:08;;;;;;;21.93;20.30;;;23.00;99.90;;;;;;5074561;28;20447;-59
2021/09/24 11:29:40;;;;;;;21.27;20.00;;;23.50;99.90;;;;;;5074239;28;20451;-61
2021/09/24 11:32:10;;;;;;;21.13;19.83;;;23.80;99.90;;;;;;5074459;28;20446;-59
2021/09/24 11:34:57;;;;;;;21.60;20.20;;;24.20;99.90;;;;;;5074306;28;20471;-60
2021/09/24 11:37:26;;;;;;;22.00;20.90;;;24.50;99.90;;;;;;5074293;28;20502;-62
2021/09/24 11:40:01;;;;;;;21.47;20.40;;;24.50;99.90;;;;;;5073772;28;20956;-59
2021/09/24 11:42:29;;;;;;;20.80;19.63;;;25.00;99.90;;;;;;5073830;28;20483;-59
2021/09/24 11:44:58;;;;;;;20.77;19.67;;;25.30;99.60;;;;;;5074239;28;20972;-59
2021/09/24 11:47:28;;;;;;;18.33;17.33;;;25.00;98.60;;;;;;5074259;28;20542;-57
2021/09/24 11:49:57;;;;;;;19.97;18.97;;;24.80;99.30;;;;;;5073889;28;20455;-59
2021/09/24 11:52:25;;;;;;;18.50;17.60;;;25.00;99.40;;;;;;5074086;28;20439;-58
2021/09/24 11:54:51;;;;;;;18.40;17.50;;;25.20;98.90;;;;;;5073932;28;20839;-59
2021/09/24 11:57:20;;;;;;;19.07;18.10;;;26.10;97.00;;;;;;5074058;28;20451;-59
2021/09/24 11:59:46;;;;;;;18.63;17.73;;;25.70;95.90;;;;;;5073717;28;20444;-58
2021/09/24 12:02:20;;;;;;;18.70;17.80;;;26.50;96.20;;;;;;5073794;28;20487;-59
2021/09/24 12:04:58;;;;;;;19.17;18.17;;;26.40;94.40;;;;;;5073868;28;20658;-59
2021/09/24 12:07:25;;;;;;;18.30;17.40;;;25.80;94.40;;;;;;5073869;28;20512;-59
2021/09/24 12:09:57;;;;;;;19.00;17.40;;;25.50;94.80;;;;;;5073032;28;20447;-61
2021/09/24 12:12:26;;;;;;;19.10;18.20;;;25.00;96.30;;;;;;5073874;28;20478;-61
2021/09/24 12:14:58;;;;;;;19.27;18.20;;;24.90;96.30;;;;;;5073614;28;20474;-61
2021/09/24 12:17:27;;;;;;;16.37;15.77;;;24.40;97.20;;;;;;5073685;28;20451;-61
2021/09/24 12:19:54;;;;;;;18.63;17.70;;;24.40;98.10;;;;;;5073320;28;20443;-59
2021/09/24 12:22:21;;;;;;;19.03;17.83;;;24.10;98.20;;;;;;5073635;28;20490;-59
2021/09/24 12:24:48;;;;;;;17.10;16.40;;;23.90;99.40;;;;;;5073486;28;20973;-58
2021/09/24 12:27:19;;;;;;;18.30;17.50;;;23.50;99.90;;;;;;5073428;28;20447;-59
2021/09/24 12:29:49;;;;;;;17.53;16.70;;;23.30;99.90;;;;;;5073346;28;20455;-58
2021/09/24 12:32:17;;;;;;;18.17;17.27;;;23.00;99.90;;;;;;5073301;28;20816;-58
2021/09/24 12:34:47;;;;;;;18.07;17.10;;;22.70;99.90;;;;;;5073090;28;20478;-59